Alplaus, New York
Current Conditions -  °F | °C
As of 6:51 PM on Monday 20 Oct 2014 (Local Time) from KALB Reporting Station
Overcast Overcast  
Wind Chill: 11°   Ceiling: 9000
Heat Index: 11°   Visibility: 10mi
Dew Point:   Wind: 6mph
Humidity: 53%   Direction: 180°S
Pressure: 29.94"   Gusts: NA
Location:  42.86°N, 73.9°W
Report Text: KALB 202251Z 18005KT 10SM BKN090 BKN140 OVC200 11/02 A2994 RMK AO2 SLP141 T01110017
Loading
Personal Weather Stations






























Interactive Weather Map
Tropical Storm Tracking
New forecast layout! Learn more

10-Day Weather Forecast

Advertisements
Track Severe Weather on mobile